地図

経路データ

SID SEASON NUMBER BASIN SUBBASIN NAME ISO_TIME NATURE LAT LON WMO_WIND WMO_PRES WMO_AGENCY TRACK_TYPE DIST2LAND LANDFALL IFLAG USA_AGENCY USA_ATCF_ID USA_LAT USA_LON USA_RECORD USA_STATUS USA_WIND USA_PRES USA_SSHS USA_R34_NE USA_R34_SE USA_R34_SW USA_R34_NW USA_R50_NE USA_R50_SE USA_R50_SW USA_R50_NW USA_R64_NE USA_R64_SE USA_R64_SW USA_R64_NW USA_POCI USA_ROCI USA_RMW USA_EYE TOKYO_LAT TOKYO_LON TOKYO_GRADE TOKYO_WIND TOKYO_PRES TOKYO_R50_DIR TOKYO_R50_LONG TOKYO_R50_SHORT TOKYO_R30_DIR TOKYO_R30_LONG TOKYO_R30_SHORT TOKYO_LAND CMA_LAT CMA_LON CMA_CAT CMA_WIND CMA_PRES HKO_LAT HKO_LON HKO_CAT HKO_WIND HKO_PRES NEWDELHI_LAT NEWDELHI_LON NEWDELHI_GRADE NEWDELHI_WIND NEWDELHI_PRES NEWDELHI_CI NEWDELHI_DP NEWDELHI_POCI REUNION_LAT REUNION_LON REUNION_TYPE REUNION_WIND REUNION_PRES REUNION_TNUM REUNION_CI REUNION_RMW REUNION_R34_NE REUNION_R34_SE REUNION_R34_SW REUNION_R34_NW REUNION_R50_NE REUNION_R50_SE REUNION_R50_SW REUNION_R50_NW REUNION_R64_NE REUNION_R64_SE REUNION_R64_SW REUNION_R64_NW BOM_LAT BOM_LON BOM_TYPE BOM_WIND BOM_PRES BOM_TNUM BOM_CI BOM_RMW BOM_R34_NE BOM_R34_SE BOM_R34_SW BOM_R34_NW BOM_R50_NE BOM_R50_SE BOM_R50_SW BOM_R50_NW BOM_R64_NE BOM_R64_SE BOM_R64_SW BOM_R64_NW BOM_ROCI BOM_POCI BOM_EYE BOM_POS_METHOD BOM_PRES_METHOD NADI_LAT NADI_LON NADI_CAT NADI_WIND NADI_PRES WELLINGTON_LAT WELLINGTON_LON WELLINGTON_WIND WELLINGTON_PRES DS824_LAT DS824_LON DS824_STAGE DS824_WIND DS824_PRES TD9636_LAT TD9636_LON TD9636_STAGE TD9636_WIND TD9636_PRES TD9635_LAT TD9635_LON TD9635_WIND TD9635_PRES TD9635_ROCI NEUMANN_LAT NEUMANN_LON NEUMANN_CLASS NEUMANN_WIND NEUMANN_PRES MLC_LAT MLC_LON MLC_CLASS MLC_WIND MLC_PRES USA_GUST BOM_GUST BOM_GUST_PER REUNION_GUST REUNION_GUST_PER USA_SEAHGT USA_SEARAD_NE USA_SEARAD_SE USA_SEARAD_SW USA_SEARAD_NW STORM_SPEED STORM_DIR
1878272N26289 1878 25 NA NA NOT_NAMED 1878-09-29 09:00:00 TS 26.0424 -71.2647 spur-other 563 563 ______________ -1 6 30
1878272N26289 1878 25 NA NA NOT_NAMED 1878-09-29 12:00:00 TS 26.3000 -71.1000 spur-other 601 601 _____________O -1 26.3000 -71.1000 HU 75 7 36
1878272N26289 1878 25 NA NA NOT_NAMED 1878-09-29 15:00:00 TS 26.5926 -70.8151 spur-other 643 643 _____________P -1 26.6002 -70.7904 HU 77 8 42
1878272N26289 1878 25 NA NA NOT_NAMED 1878-09-29 18:00:00 TS 26.9000 -70.5000 spur-other 685 685 _____________O -1 26.9000 -70.5000 HU 80 8 40
1878272N26289 1878 25 NA NA NOT_NAMED 1878-09-29 21:00:00 TS 27.1999 -70.2423 spur-other 728 728 _____________P -1 27.1999 -70.2423 HU 82 7 37
1878272N26289 1878 25 NA NA NOT_NAMED 1878-09-30 00:00:00 TS 27.5000 -70.0000 spur-other 766 766 _____________O -1 27.5000 -70.0000 HU 85 7 36
1878272N26289 1878 25 NA NA NOT_NAMED 1878-09-30 03:00:00 TS 27.8000 -69.7499 spur-other 809 809 _____________P -1 27.8000 -69.7499 HU 85 7 36
1878272N26289 1878 25 NA NA NOT_NAMED 1878-09-30 06:00:00 TS 28.1000 -69.5000 spur-other 848 848 _____________O -1 28.1000 -69.5000 HU 85 8 38
1878272N26289 1878 25 NA NA NOT_NAMED 1878-09-30 09:00:00 TS 28.4151 -69.2127 spur-other 890 890 _____________P -1 28.4151 -69.2127 HU 90 7 36
1878272N26289 1878 25 NA NA NOT_NAMED 1878-09-30 12:00:00 TS 28.7000 -69.0000 spur-other 929 929 _____________O -1 28.7000 -69.0000 HU 95 6 23
1878272N26289 1878 25 NA NA NOT_NAMED 1878-09-30 15:00:00 TS 28.9224 -68.9622 spur-other 949 942 _____________P -1 28.9224 -68.9622 HU 95 4 0
1878272N26289 1878 25 NA NA NOT_NAMED 1878-09-30 18:00:00 TS 29.1000 -69.0000 spur-other 942 935 _____________O -1 29.1000 -69.0000 HU 95 3 352
1878272N26289 1878 25 NA NA NOT_NAMED 1878-09-30 21:00:00 TS 29.2575 -69.0000 spur-other 927 919 _____________P -1 29.2575 -69.0000 HU 97 3 0
1878272N26289 1878 25 NA NA NOT_NAMED 1878-10-01 00:00:00 NR 29.4000 -69.0000 spur-other 919 912 _____________O -1 29.4000 -69.0000 MH 100 3 5
1878272N26289 1878 25 NA NA NOT_NAMED 1878-10-01 03:00:00 NR 29.5500 -69.0000 spur-other 904 896 _____________P -1 29.5500 -69.0000 MH 100 3 0
1878272N26289 1878 25 NA NA NOT_NAMED 1878-10-01 06:00:00 NR 29.7000 -69.0000 spur-other 896 882 _____________O -1 29.7000 -69.0000 MH 100 3 0
1878272N26289 1878 25 NA NA NOT_NAMED 1878-10-01 09:00:00 NR 29.8950 -68.9775 spur-other 882 874 _____________P -1 29.8950 -68.9775 MH 100 3 0
1878272N26289 1878 25 NA NA NOT_NAMED 1878-10-01 12:00:00 NR 30.0000 -69.0000 spur-other 874 867 _____________O -1 30.0000 -69.0000 MH 100 1 267
1878272N26289 1878 25 NA NA NOT_NAMED 1878-10-01 15:00:00 NR 29.8876 -69.1352 spur-other 874 867 _____________P -1 29.8876 -69.1352 MH 100 4 221
1878272N26289 1878 25 NA NA NOT_NAMED 1878-10-01 18:00:00 NR 29.7000 -69.3000 spur-other 875 875 _____________O -1 29.7000 -69.3000 MH 100 4 219
1878272N26289 1878 25 NA NA NOT_NAMED 1878-10-01 21:00:00 NR 29.6000 -69.3999 spur-other 876 876 _____________P -1 29.5750 -69.4174 MH 105 3 221
1878272N26289 1878 25 NA NA NOT_NAMED 1878-10-02 00:00:00 NR 29.5000 -69.5000 spur-other 876 _____________O -1 29.5000 -69.5000 MH 110 3 220

IBTrACS Databaseについて

本データベースは、米国NOAAが公開する1842年以降の世界の熱帯低気圧のベストトラックデータアーカイブInternational Best Track Archive for Climate Stewardship (IBTrACS)を、ウェブで閲覧しやすい形式に変換したものです。

最終更新日:2021-12-06